Andersonburg, Pennsylvania
Current Conditions -  °F | °C
As of 6:56 PM on Saturday 20 Dec 2014 (Local Time) from KCXY Reporting Station
Clear Clear  
Wind Chill: -3°   Ceiling: Unl
Heat Index: -3°   Visibility: 10mi
Dew Point: -6°   Wind: 3mph
Humidity: 78%   Direction: 230°SW
Pressure: 30.29"   Gusts: NA
Location:  40.3674°N, 77.4381°W
Report Text: KCXY 202356Z 23003KT 10SM CLR M03/M06 A3029 RMK AO2 SLP264 T10281061 10017 21028 51011
Loading
Personal Weather Stations






























Interactive Weather Map New forecast layout! Learn more

10-Day Weather Forecast

Advertisements
Track Severe Weather on mobile